createdAt,value
2022-09-20T00:01:23.355Z,91226.41
2022-09-20T00:03:53.068Z,91220.31
2022-09-20T00:06:22.554Z,91221.81
2022-09-20T00:08:49.521Z,91221.91
2022-09-20T00:11:19.000Z,91221.63
2022-09-20T00:13:47.530Z,91228.91
2022-09-20T00:16:22.056Z,91231.19
2022-09-20T00:18:50.851Z,91233.44
2022-09-20T00:21:22.813Z,91232.78
2022-09-20T00:23:49.549Z,91214.66
2022-09-20T00:26:16.634Z,91227.41
2022-09-20T00:28:44.202Z,91225.91
2022-09-20T00:31:11.971Z,91203.50
2022-09-20T00:33:57.712Z,91211.16
2022-09-20T00:36:24.493Z,91221.41
2022-09-20T00:38:55.804Z,91222.38
2022-09-20T00:41:22.755Z,91214.56
2022-09-20T00:43:49.391Z,91205.00
2022-09-20T00:46:41.006Z,91219.34
2022-09-20T00:49:15.677Z,91214.78
2022-09-20T00:51:47.425Z,91214.78
2022-09-20T00:54:20.359Z,91219.25
2022-09-20T00:56:48.511Z,91216.63
2022-09-20T00:59:20.305Z,91216.53
2022-09-20T01:01:56.647Z,91215.59
2022-09-20T01:04:27.168Z,91213.09
2022-09-20T01:06:57.993Z,91214.44
2022-09-20T01:09:24.629Z,91219.78
2022-09-20T01:11:55.373Z,91212.13
2022-09-20T01:14:24.245Z,91211.25
2022-09-20T01:16:55.239Z,91216.88
2022-09-20T01:19:37.644Z,91214.53
2022-09-20T01:22:11.983Z,91211.00
2022-09-20T01:25:04.600Z,91207.94
2022-09-20T01:27:51.216Z,91198.72
2022-09-20T01:30:29.040Z,91197.00
2022-09-20T01:33:09.810Z,91214.56
2022-09-20T01:35:37.141Z,91210.31
2022-09-20T01:38:12.599Z,91212.00
2022-09-20T01:40:43.259Z,91217.78
2022-09-20T01:43:42.365Z,91220.63
2022-09-20T01:46:36.243Z,91212.16
2022-09-20T01:49:27.463Z,91220.56
2022-09-20T01:52:15.543Z,91216.94
2022-09-20T01:54:45.164Z,91218.31
2022-09-20T01:57:33.306Z,91206.13
2022-09-20T02:00:13.436Z,91210.53
2022-09-20T02:03:07.840Z,91208.38
2022-09-20T02:05:53.427Z,91204.63
2022-09-20T02:08:35.438Z,91206.53
2022-09-20T02:11:29.365Z,91197.66
2022-09-20T02:14:15.957Z,91211.78
2022-09-20T02:16:52.342Z,91211.03
2022-09-20T02:19:33.754Z,91202.47
2022-09-20T02:22:09.302Z,91218.47
2022-09-20T02:24:45.831Z,91206.25
2022-09-20T02:27:15.414Z,91214.00
2022-09-20T02:29:42.247Z,91210.41
2022-09-20T02:32:37.242Z,91214.94
2022-09-20T02:35:42.310Z,91212.38
2022-09-20T02:38:22.271Z,91212.75
2022-09-20T02:41:10.402Z,91211.25
2022-09-20T02:44:09.261Z,91212.34
2022-09-20T02:47:14.979Z,91213.03
2022-09-20T02:49:56.872Z,91213.75
2022-09-20T02:52:29.271Z,91225.31
2022-09-20T02:55:06.066Z,91206.84
2022-09-20T02:57:52.104Z,91210.50
2022-09-20T03:00:27.147Z,91217.72
2022-09-20T03:02:53.596Z,91229.84
2022-09-20T03:05:37.854Z,91219.16
2022-09-20T03:08:26.283Z,91225.25
2022-09-20T03:11:24.897Z,91227.56
2022-09-20T03:14:23.253Z,91215.63
2022-09-20T03:17:15.978Z,91230.50
2022-09-20T03:19:48.605Z,91235.41
2022-09-20T03:22:29.045Z,91235.13
2022-09-20T03:25:20.120Z,91232.44
2022-09-20T03:27:56.009Z,91229.03
2022-09-20T03:30:41.601Z,91229.84
2022-09-20T03:33:43.637Z,91227.44
2022-09-20T03:36:42.170Z,91234.47
2022-09-20T03:39:11.704Z,91237.00
2022-09-20T03:41:57.543Z,91244.81
2022-09-20T03:44:38.276Z,91233.56
2022-09-20T03:47:33.148Z,91235.69
2022-09-20T03:50:07.508Z,91240.53
2022-09-20T03:52:37.273Z,91239.47
2022-09-20T03:55:16.007Z,91234.31
2022-09-20T03:58:12.503Z,91236.38
2022-09-20T04:01:10.825Z,91237.88
2022-09-20T04:03:59.996Z,91216.72
2022-09-20T04:06:29.505Z,91226.50
2022-09-20T04:09:25.015Z,91218.25
2022-09-20T04:12:19.578Z,91232.28
2022-09-20T04:15:05.292Z,91228.69
2022-09-20T04:17:53.887Z,91224.47
2022-09-20T04:20:28.882Z,91215.78
2022-09-20T04:22:58.829Z,91231.97
2022-09-20T04:25:43.874Z,91225.44
2022-09-20T04:28:22.528Z,91231.34
2022-09-20T04:30:55.478Z,91237.28
2022-09-20T04:33:29.356Z,91234.09
2022-09-20T04:36:37.842Z,91231.63
2022-09-20T04:39:25.663Z,91241.84
2022-09-20T04:42:28.830Z,91242.31
2022-09-20T04:45:30.646Z,91242.88
2022-09-20T04:48:03.539Z,91247.59
2022-09-20T04:50:42.874Z,91254.41
2022-09-20T04:53:19.087Z,91248.16
2022-09-20T04:55:58.982Z,91250.66
2022-09-20T04:58:42.318Z,91250.75
2022-09-20T05:01:16.680Z,91256.94
2022-09-20T05:04:01.835Z,91256.34
2022-09-20T05:07:03.250Z,91247.78
2022-09-20T05:09:51.165Z,91253.53
2022-09-20T05:12:25.642Z,91249.72
2022-09-20T05:15:16.698Z,91242.69
2022-09-20T05:18:21.564Z,91259.34
2022-09-20T05:21:03.641Z,91263.69
2022-09-20T05:23:58.352Z,91252.00
2022-09-20T05:26:34.328Z,91248.41
2022-09-20T05:29:27.173Z,91256.50
2022-09-20T05:32:22.129Z,91240.25
2022-09-20T05:35:21.519Z,91234.25
2022-09-20T05:38:04.199Z,91234.69
2022-09-20T05:40:33.911Z,91236.34
2022-09-20T05:43:14.052Z,91236.50
2022-09-20T05:46:11.141Z,91223.78
2022-09-20T05:48:56.816Z,91239.66
2022-09-20T05:51:45.814Z,91230.44
2022-09-20T05:54:18.455Z,91220.78
2022-09-20T05:57:08.101Z,91213.19
2022-09-20T06:00:07.615Z,91205.28
2022-09-20T06:02:55.770Z,91217.22
2022-09-20T06:05:56.707Z,91226.31
2022-09-20T06:08:49.513Z,91242.50
2022-09-20T06:11:35.474Z,91224.22
2022-09-20T06:14:12.620Z,91223.44
2022-09-20T06:17:03.445Z,91223.84
2022-09-20T06:19:51.778Z,91231.22
2022-09-20T06:22:33.501Z,91232.69
2022-09-20T06:25:11.020Z,91225.06
2022-09-20T06:28:01.798Z,91232.63
2022-09-20T06:30:36.890Z,91226.28
2022-09-20T06:33:06.545Z,91238.09
2022-09-20T06:36:20.763Z,91241.16
2022-09-20T06:39:09.150Z,91233.28
2022-09-20T06:41:36.959Z,91229.00
2022-09-20T06:44:07.084Z,91223.72
2022-09-20T06:46:36.249Z,91228.97
2022-09-20T06:49:03.832Z,91224.75
2022-09-20T06:51:36.571Z,91213.84
2022-09-20T06:54:05.007Z,91210.00
2022-09-20T06:56:37.064Z,91212.41
2022-09-20T06:59:08.718Z,91211.38
2022-09-20T07:01:35.662Z,91225.59
2022-09-20T07:04:03.128Z,91225.16
2022-09-20T07:06:29.883Z,91228.47
2022-09-20T07:08:56.514Z,91226.25
2022-09-20T07:11:23.463Z,91203.69
2022-09-20T07:13:55.625Z,91235.31
2022-09-20T07:16:22.436Z,91227.09
2022-09-20T07:18:49.578Z,91226.00
2022-09-20T07:21:17.875Z,91232.69
2022-09-20T07:23:51.408Z,91219.19
2022-09-20T07:26:23.927Z,91237.09
2022-09-20T07:28:51.141Z,91227.06
2022-09-20T07:31:19.445Z,91237.53
2022-09-20T07:33:46.580Z,91245.38
2022-09-20T07:36:13.781Z,91238.31
2022-09-20T07:38:42.054Z,91244.72
2022-09-20T07:41:09.793Z,91237.53
2022-09-20T07:43:36.727Z,91234.19
2022-09-20T07:46:03.856Z,91235.84
2022-09-20T07:48:33.484Z,91223.88
2022-09-20T07:51:08.790Z,91224.06
2022-09-20T07:53:36.871Z,91227.13
2022-09-20T07:56:12.129Z,91218.97
2022-09-20T07:58:39.187Z,91233.91
2022-09-20T08:01:08.702Z,91230.03
2022-09-20T08:03:35.940Z,91213.41
2022-09-20T08:06:07.978Z,91227.22
2022-09-20T08:08:36.995Z,91236.97
2022-09-20T08:11:28.714Z,91233.94
2022-09-20T08:14:06.124Z,91223.13
2022-09-20T08:16:38.794Z,91230.09
2022-09-20T08:19:05.750Z,91224.66
2022-09-20T08:21:34.170Z,91229.56
2022-09-20T08:24:01.462Z,91223.91
2022-09-20T08:26:31.176Z,91219.44
2022-09-20T08:28:59.894Z,91209.63
2022-09-20T08:31:28.767Z,91218.13
2022-09-20T08:33:55.682Z,91221.94
2022-09-20T08:36:24.686Z,91219.94
2022-09-20T08:41:46.217Z,91221.09
2022-09-20T08:44:26.667Z,91218.97
2022-09-20T08:47:22.761Z,91213.53
2022-09-20T08:49:56.719Z,91224.47
2022-09-20T08:52:37.629Z,91220.66
2022-09-20T08:55:17.762Z,91225.63
2022-09-20T08:57:49.161Z,91221.81
2022-09-20T09:00:22.761Z,91225.03
2022-09-20T09:02:54.233Z,91228.25
2022-09-20T09:05:31.844Z,91222.75
2022-09-20T09:08:05.031Z,91219.47
2022-09-20T09:10:45.944Z,91213.41
2022-09-20T09:13:51.441Z,91208.22
2022-09-20T09:16:28.722Z,91203.53
2022-09-20T09:19:33.970Z,91208.69
2022-09-20T09:22:03.252Z,91206.84
2022-09-20T09:24:37.774Z,91217.81
2022-09-20T09:27:19.680Z,91214.00
2022-09-20T09:29:54.959Z,91202.22
2022-09-20T09:32:29.263Z,91208.63
2022-09-20T09:34:57.346Z,91211.63
2022-09-20T09:37:29.060Z,91200.25
2022-09-20T09:40:08.072Z,91207.22
2022-09-20T09:42:35.974Z,91212.53
2022-09-20T09:45:24.202Z,91212.03
2022-09-20T09:47:50.809Z,91202.06
2022-09-20T09:50:32.317Z,91194.59
2022-09-20T09:53:00.916Z,91219.66
2022-09-20T09:55:38.551Z,91211.75
2022-09-20T09:58:23.575Z,91204.19
2022-09-20T10:00:53.331Z,91215.34
2022-09-20T10:03:19.951Z,91203.56
2022-09-20T10:06:08.168Z,91196.41
2022-09-20T10:08:55.096Z,91196.41
2022-09-20T10:11:58.584Z,91198.41
2022-09-20T10:14:54.876Z,91200.38
2022-09-20T10:17:40.422Z,91199.47
2022-09-20T10:20:31.233Z,91204.44
2022-09-20T10:26:22.261Z,91196.94
2022-09-20T10:29:21.947Z,91192.09
2022-09-20T10:32:15.392Z,91192.09
2022-09-20T10:35:26.722Z,91191.53
2022-09-20T10:38:08.408Z,91192.19
2022-09-20T10:41:08.725Z,91187.84
2022-09-20T10:43:59.225Z,91169.34
2022-09-20T10:47:02.484Z,91187.47
2022-09-20T10:50:00.644Z,91192.16
2022-09-20T10:53:02.350Z,91192.25
2022-09-20T10:55:59.296Z,91175.91
2022-09-20T10:58:41.734Z,91186.06
2022-09-20T11:01:30.042Z,91194.22
2022-09-20T11:04:15.674Z,91190.25
2022-09-20T11:06:48.190Z,91190.75
2022-09-20T11:09:20.786Z,91199.81
2022-09-20T11:11:52.642Z,91197.50
2022-09-20T11:14:23.576Z,91194.03
2022-09-20T11:17:12.132Z,91197.34
2022-09-20T11:19:50.585Z,91189.06
2022-09-20T11:22:40.528Z,91199.94
2022-09-20T11:25:20.155Z,91191.38
2022-09-20T11:27:56.650Z,91184.75
2022-09-20T11:30:23.862Z,91183.34
2022-09-20T11:33:13.020Z,91185.25
2022-09-20T11:35:46.310Z,91183.75
2022-09-20T11:38:38.557Z,91171.13
2022-09-20T11:41:11.902Z,91168.97
2022-09-20T11:43:42.885Z,91168.47
2022-09-20T11:46:13.937Z,91171.28
2022-09-20T11:48:47.770Z,91162.97
2022-09-20T11:51:20.295Z,91159.50
2022-09-20T11:53:58.970Z,91157.41
2022-09-20T11:56:31.090Z,91159.66
2022-09-20T11:59:08.263Z,91153.84
2022-09-20T12:01:37.364Z,91161.44
2022-09-20T12:04:32.499Z,91156.75
2022-09-20T12:07:11.536Z,91158.78
2022-09-20T12:09:44.327Z,91153.44
2022-09-20T12:12:32.368Z,91157.69
2022-09-20T12:15:01.626Z,91161.13
2022-09-20T12:17:48.637Z,91164.03
2022-09-20T12:20:35.583Z,91170.72
2022-09-20T12:23:45.393Z,91165.19
2022-09-20T12:26:21.632Z,91158.00
2022-09-20T12:28:51.168Z,91164.50
2022-09-20T12:31:31.788Z,91160.72
2022-09-20T12:34:13.926Z,91170.06
2022-09-20T12:37:00.759Z,91178.66
2022-09-20T12:39:50.590Z,91176.63
2022-09-20T12:42:21.640Z,91171.19
2022-09-20T12:44:51.336Z,91174.84
2022-09-20T12:47:26.652Z,91175.97
2022-09-20T12:50:15.173Z,91172.84
2022-09-20T12:52:53.522Z,91178.63
2022-09-20T12:55:32.458Z,91176.75
2022-09-20T12:58:16.987Z,91180.22
2022-09-20T13:00:48.091Z,91181.53
2022-09-20T13:03:23.992Z,91178.63
2022-09-20T13:06:12.494Z,91185.94
2022-09-20T13:08:54.765Z,91190.50
2022-09-20T13:11:47.686Z,91195.03
2022-09-20T13:14:28.943Z,91198.63
2022-09-20T13:16:59.574Z,91192.84
2022-09-20T13:19:34.261Z,91190.31
2022-09-20T13:22:06.129Z,91188.84
2022-09-20T13:24:37.677Z,91183.88
2022-09-20T13:27:19.816Z,91180.22
2022-09-20T13:29:47.152Z,91200.31
2022-09-20T13:32:27.142Z,91193.78
2022-09-20T13:35:12.498Z,91199.22
2022-09-20T13:37:51.662Z,91212.22
2022-09-20T13:40:33.654Z,91200.75
2022-09-20T13:43:23.177Z,91199.38
2022-09-20T13:45:59.942Z,91202.38
2022-09-20T13:48:30.422Z,91210.53
2022-09-20T13:50:58.370Z,91206.97
2022-09-20T13:53:42.756Z,91219.09
2022-09-20T13:56:19.787Z,91196.94
2022-09-20T13:58:46.637Z,91213.03
2022-09-20T14:01:44.185Z,91217.41
2022-09-20T14:04:16.698Z,91220.63
2022-09-20T14:06:43.543Z,91209.09
2022-09-20T14:09:26.670Z,91221.28
2022-09-20T14:11:53.974Z,91217.63
2022-09-20T14:14:22.468Z,91212.22
2022-09-20T14:16:50.313Z,91217.25
2022-09-20T14:19:20.447Z,91219.88
2022-09-20T14:21:49.021Z,91222.09
2022-09-20T14:24:33.626Z,91229.31
2022-09-20T14:27:19.795Z,91233.44
2022-09-20T14:29:50.914Z,91237.53
2022-09-20T14:32:17.558Z,91236.78
2022-09-20T14:34:47.162Z,91241.38
2022-09-20T14:37:25.486Z,91246.50
2022-09-20T14:39:57.827Z,91247.34
2022-09-20T14:42:27.447Z,91241.16
2022-09-20T14:44:54.256Z,91249.53
2022-09-20T14:47:35.200Z,91253.16
2022-09-20T14:50:03.895Z,91246.16
2022-09-20T14:52:37.499Z,91251.22
2022-09-20T14:55:10.162Z,91247.56
2022-09-20T14:57:37.817Z,91249.03
2022-09-20T15:00:16.235Z,91255.19
2022-09-20T15:02:44.933Z,91255.25
2022-09-20T15:05:23.958Z,91254.00
2022-09-20T15:07:50.699Z,91259.34
2022-09-20T15:10:17.397Z,91257.78
2022-09-20T15:12:44.276Z,91254.88
2022-09-20T15:15:17.468Z,91253.81
2022-09-20T15:17:45.281Z,91247.13
2022-09-20T15:20:24.710Z,91268.84
2022-09-20T15:22:51.559Z,91266.50
2022-09-20T15:25:21.222Z,91276.72
2022-09-20T15:27:51.125Z,91277.41
2022-09-20T15:30:19.847Z,91269.00
2022-09-20T15:32:47.168Z,91260.28
2022-09-20T15:35:14.741Z,91263.13
2022-09-20T15:37:41.697Z,91256.16
2022-09-20T15:40:09.346Z,91266.94
2022-09-20T15:42:38.073Z,91265.00
2022-09-20T15:45:09.587Z,91262.31
2022-09-20T15:47:37.730Z,91264.19
2022-09-20T15:50:07.521Z,91272.09
2022-09-20T15:52:42.495Z,91268.78
2022-09-20T15:55:09.932Z,91274.06
2022-09-20T15:57:36.697Z,91259.88
2022-09-20T16:00:03.929Z,91276.31
2022-09-20T16:02:31.290Z,91277.91
2022-09-20T16:04:59.547Z,91274.69
2022-09-20T16:07:26.901Z,91281.06
2022-09-20T16:09:55.182Z,91288.94
2022-09-20T16:12:24.234Z,91286.69
2022-09-20T16:14:51.322Z,91303.97
2022-09-20T16:17:18.210Z,91298.72
2022-09-20T16:19:46.439Z,91289.63
2022-09-20T16:22:13.324Z,91297.13
2022-09-20T16:24:39.962Z,91295.19
2022-09-20T16:27:08.562Z,91300.88
2022-09-20T16:29:35.231Z,91292.56
2022-09-20T16:32:06.157Z,91298.69
2022-09-20T16:34:35.801Z,91305.91
2022-09-20T16:37:06.090Z,91304.41
2022-09-20T16:39:33.488Z,91313.06
2022-09-20T16:42:05.284Z,91318.28
2022-09-20T16:44:37.294Z,91314.97
2022-09-20T16:47:09.023Z,91315.28
2022-09-20T16:49:36.763Z,91316.75
2022-09-20T16:52:09.504Z,91310.41
2022-09-20T16:54:36.482Z,91325.53
2022-09-20T16:57:03.396Z,91320.66
2022-09-20T16:59:30.111Z,91334.25
2022-09-20T17:01:57.142Z,91339.50
2022-09-20T17:04:23.905Z,91336.44
2022-09-20T17:06:51.524Z,91323.66
2022-09-20T17:09:18.580Z,91335.66
2022-09-20T17:11:50.151Z,91331.91
2022-09-20T17:14:18.800Z,91341.75
2022-09-20T17:16:50.289Z,91341.78
2022-09-20T17:19:20.103Z,91343.63
2022-09-20T17:21:50.232Z,91347.03
2022-09-20T17:24:21.897Z,91342.56
2022-09-20T17:26:50.426Z,91352.69
2022-09-20T17:29:18.635Z,91354.94
2022-09-20T17:31:54.098Z,91345.19
2022-09-20T17:34:21.874Z,91359.47
2022-09-20T17:36:50.558Z,91354.94
2022-09-20T17:39:17.939Z,91342.53
2022-09-20T17:41:47.148Z,91359.09
2022-09-20T17:44:14.558Z,91356.84
2022-09-20T17:46:43.423Z,91358.72
2022-09-20T17:49:19.432Z,91371.13
2022-09-20T17:51:48.921Z,91374.13
2022-09-20T17:54:16.696Z,91363.97
2022-09-20T17:56:48.570Z,91368.09
2022-09-20T17:59:16.801Z,91376.75
2022-09-20T18:01:44.941Z,91368.84
2022-09-20T18:04:11.886Z,91373.72
2022-09-20T18:06:47.180Z,91378.22
2022-09-20T18:09:16.394Z,91380.50
2022-09-20T18:11:49.686Z,91386.09
2022-09-20T18:14:24.230Z,91384.63
2022-09-20T18:16:57.997Z,91385.38
2022-09-20T18:19:25.037Z,91380.09
2022-09-20T18:21:51.774Z,91381.97
2022-09-20T18:24:18.578Z,91384.63
2022-09-20T18:26:45.292Z,91382.38
2022-09-20T18:29:14.090Z,91381.19
2022-09-20T18:31:48.282Z,91394.28
2022-09-20T18:34:18.400Z,91398.03
2022-09-20T18:36:52.938Z,91389.78
2022-09-20T18:39:24.405Z,91392.44
2022-09-20T18:41:53.086Z,91391.56
2022-09-20T18:44:21.129Z,91392.00
2022-09-20T18:46:48.209Z,91401.09
2022-09-20T18:49:16.815Z,91399.19
2022-09-20T18:51:44.879Z,91388.28
2022-09-20T18:54:12.242Z,91395.41
2022-09-20T18:56:43.754Z,91393.81
2022-09-20T18:59:17.799Z,91390.44
2022-09-20T19:01:56.641Z,91398.28
2022-09-20T19:04:42.007Z,91396.44
2022-09-20T19:07:39.189Z,91395.31
2022-09-20T19:10:05.867Z,91391.94
2022-09-20T19:12:57.183Z,91396.44
2022-09-20T19:15:42.113Z,91390.78
2022-09-20T19:18:35.772Z,91398.56
2022-09-20T19:21:11.920Z,91400.41
2022-09-20T19:24:08.718Z,91408.19
2022-09-20T19:26:38.128Z,91407.53
2022-09-20T19:29:17.350Z,91405.34
2022-09-20T19:31:44.485Z,91412.72
2022-09-20T19:34:24.946Z,91399.22
2022-09-20T19:37:28.830Z,91404.97
2022-09-20T19:40:03.644Z,91413.31
2022-09-20T19:43:13.952Z,91414.13
2022-09-20T19:45:47.047Z,91409.72
2022-09-20T19:48:25.726Z,91416.81
2022-09-20T19:50:53.273Z,91417.09
2022-09-20T19:53:22.432Z,91413.53
2022-09-20T19:56:15.219Z,91412.28
2022-09-20T19:58:43.366Z,91419.19
2022-09-20T20:01:10.772Z,91413.75
2022-09-20T20:03:37.641Z,91421.84
2022-09-20T20:06:13.403Z,91420.72
2022-09-20T20:08:50.692Z,91424.91
2022-09-20T20:11:29.688Z,91418.50
2022-09-20T20:14:12.139Z,91416.69
2022-09-20T20:16:55.171Z,91430.97
2022-09-20T20:19:59.408Z,91424.56
2022-09-20T20:23:01.000Z,91417.72
2022-09-20T20:25:48.692Z,91425.13
2022-09-20T20:28:15.428Z,91404.91
2022-09-20T20:30:42.642Z,91424.59
2022-09-20T20:33:15.113Z,91427.28
2022-09-20T20:35:41.843Z,91421.56
2022-09-20T20:38:10.624Z,91432.19
2022-09-20T20:40:37.964Z,91427.06
2022-09-20T20:43:06.227Z,91432.44
2022-09-20T20:45:33.106Z,91423.00
2022-09-20T20:47:59.812Z,91423.16
2022-09-20T20:50:28.212Z,91443.31
2022-09-20T20:52:56.391Z,91439.75
2022-09-20T20:55:24.760Z,91440.38
2022-09-20T20:57:58.388Z,91440.13
2022-09-20T21:00:28.439Z,91439.16
2022-09-20T21:03:01.889Z,91447.31
2022-09-20T21:05:29.072Z,91446.25
2022-09-20T21:07:57.836Z,91448.72
2022-09-20T21:10:24.625Z,91441.13
2022-09-20T21:12:54.785Z,91453.19
2022-09-20T21:15:21.564Z,91446.56
2022-09-20T21:17:52.519Z,91449.19
2022-09-20T21:20:21.408Z,91444.88
2022-09-20T21:22:48.427Z,91444.25
2022-09-20T21:25:15.185Z,91445.06
2022-09-20T21:27:42.207Z,91451.84
2022-09-20T21:30:09.234Z,91458.16
2022-09-20T21:32:36.686Z,91455.94
2022-09-20T21:35:03.554Z,91452.44
2022-09-20T21:37:30.596Z,91451.78
2022-09-20T21:39:57.239Z,91455.09
2022-09-20T21:42:25.511Z,91432.75
2022-09-20T21:44:53.077Z,91444.59
2022-09-20T21:47:20.625Z,91448.22
2022-09-20T21:49:47.712Z,91432.84
2022-09-20T21:52:14.731Z,91448.75
2022-09-20T21:54:46.468Z,91435.75
2022-09-20T21:57:13.817Z,91438.22
2022-09-20T21:59:40.705Z,91448.91
2022-09-20T22:02:07.891Z,91440.28
2022-09-20T22:04:35.420Z,91439.44
2022-09-20T22:07:04.475Z,91422.88
2022-09-20T22:09:31.174Z,91437.56
2022-09-20T22:11:57.791Z,91431.03
2022-09-20T22:14:24.702Z,91445.25
2022-09-20T22:16:51.516Z,91447.84
2022-09-20T22:19:19.092Z,91447.66
2022-09-20T22:21:48.173Z,91446.22
2022-09-20T22:24:15.857Z,91450.16
2022-09-20T22:26:48.174Z,91440.97
2022-09-20T22:29:15.852Z,91439.94
2022-09-20T22:31:47.133Z,91440.78
2022-09-20T22:34:16.486Z,91429.97
2022-09-20T22:36:44.098Z,91431.78
2022-09-20T22:39:12.589Z,91439.66
2022-09-20T22:41:41.631Z,91448.84
2022-09-20T22:44:09.220Z,91438.38
2022-09-20T22:46:36.673Z,91446.53
2022-09-20T22:49:08.521Z,91436.47
2022-09-20T22:51:36.029Z,91438.97
2022-09-20T22:54:10.887Z,91447.16
2022-09-20T22:56:38.646Z,91442.50
2022-09-20T22:59:07.936Z,91445.19
2022-09-20T23:01:37.363Z,91428.03
2022-09-20T23:04:07.879Z,91447.66
2022-09-20T23:06:38.576Z,91432.66
2022-09-20T23:09:08.129Z,91433.25
2022-09-20T23:11:35.633Z,91432.31
2022-09-20T23:14:07.088Z,91413.56
2022-09-20T23:16:36.490Z,91421.88
2022-09-20T23:19:05.390Z,91415.03
2022-09-20T23:21:34.083Z,91406.69
2022-09-20T23:24:02.557Z,91405.47
2022-09-20T23:26:31.676Z,91402.84
2022-09-20T23:29:11.025Z,91414.03
2022-09-20T23:31:39.398Z,91406.66
2022-09-20T23:34:07.801Z,91414.44
2022-09-20T23:36:38.105Z,91407.78
2022-09-20T23:39:06.222Z,91414.63
2022-09-20T23:41:33.016Z,91421.28
2022-09-20T23:44:00.469Z,91415.22
2022-09-20T23:46:27.282Z,91409.31
2022-09-20T23:48:54.257Z,91411.72
2022-09-20T23:51:24.073Z,91414.53
2022-09-20T23:53:51.702Z,91408.69
2022-09-20T23:56:19.432Z,91403.91
2022-09-20T23:58:46.591Z,91401.00
